Time;durP1;ratioP1;P1;durP2;ratioP2;P2;SDS_P1;SDS_P2;PMS_P1;PMS_P2;Temp;Humidity;BMP_temperature;BMP_pressure;BME280_temperature;BME280_humidity;BME280_pressure;Samples;Min_cycle;Max_cycle;Signal;HPM_P1;HPM_P2
2022/06/03 00:03:26;;;;;;;19.00;13.00;;;;;;;20.71;100.00;100018.44;4862473;23;10002176;-75
2022/06/03 00:06:10;;;;;;;19.48;12.23;;;;;;;21.27;100.00;100081.72;5025389;28;20118;-74
2022/06/03 00:09:06;;;;;;;18.75;12.13;;;;;;;21.09;100.00;100093.38;5037803;28;20036;-76
2022/06/03 00:11:56;;;;;;;18.17;11.68;;;;;;;20.83;100.00;100077.97;5055972;28;20033;-75
2022/06/03 00:14:48;;;;;;;17.10;12.03;;;;;;;20.72;100.00;100089.03;5054890;28;20088;-75
2022/06/03 00:17:19;;;;;;;;;;;;;;;21.00;100.00;100081.03;5037840;28;20033;-76
2022/06/03 00:20:24;;;;;;;15.43;10.20;;;;;;;21.06;100.00;100088.41;5055833;28;20003;-76
2022/06/03 00:22:56;;;;;;;18.52;10.60;;;;;;;20.99;100.00;100091.50;5056080;28;20032;-76
2022/06/03 00:25:49;;;;;;;14.52;10.27;;;;;;;21.06;100.00;100087.56;5055562;28;20021;-76
2022/06/03 00:28:20;;;;;;;20.38;10.70;;;;;;;20.63;100.00;100089.66;5037604;28;20029;-76
2022/06/03 00:31:01;;;;;;;18.73;10.90;;;;;;;20.60;100.00;100070.00;5055253;28;20029;-76
2022/06/03 00:33:37;;;;;;;18.02;11.38;;;;;;;20.86;100.00;100070.81;5055019;28;20033;-76
2022/06/03 00:36:24;;;;;;;19.98;12.68;;;;;;;20.82;100.00;100081.50;5054743;28;20120;-76
2022/06/03 00:39:00;;;;;;;27.10;12.77;;;;;;;20.83;100.00;100071.03;5054394;28;20033;-78
2022/06/03 00:41:41;;;;;;;21.13;12.02;;;;;;;20.63;100.00;100072.41;5054989;28;20025;-76
2022/06/03 00:44:28;;;;;;;22.20;11.27;;;;;;;20.21;100.00;100072.69;5055038;28;20068;-75
2022/06/03 00:47:03;;;;;;;23.70;11.40;;;;;;;20.45;100.00;100065.06;5037925;28;20118;-75
2022/06/03 00:49:52;;;;;;;22.23;11.30;;;;;;;20.24;100.00;100072.50;5054790;28;20029;-76
2022/06/03 00:52:29;;;;;;;26.55;10.88;;;;;;;19.89;100.00;100037.78;5055311;28;20040;-77
2022/06/03 00:55:03;;;;;;;25.77;10.45;;;;;;;20.34;100.00;100070.94;5037691;28;20025;-78
2022/06/03 00:57:47;;;;;;;22.02;10.48;;;;;;;20.38;100.00;100074.97;5037487;28;20579;-78
2022/06/03 01:00:19;;;;;;;18.90;10.25;;;;;;;20.51;100.00;100068.06;5055090;28;20052;-76
2022/06/03 01:03:07;;;;;;;15.68;9.95;;;;;;;20.14;100.00;100040.44;5063634;28;20044;-77
2022/06/03 01:05:51;;;;;;;16.13;9.88;;;;;;;20.12;100.00;100081.00;5075633;28;20044;-75
2022/06/03 01:08:50;;;;;;;21.60;9.65;;;;;;;20.12;100.00;100070.69;5074656;28;20067;-75
2022/06/03 01:11:31;;;;;;;16.15;9.63;;;;;;;20.73;100.00;100059.69;5056399;28;20028;-75
2022/06/03 01:14:03;;;;;;;19.98;10.55;;;;;;;20.54;100.00;100062.69;5056969;28;20025;-76
2022/06/03 01:16:41;;;;;;;16.42;10.05;;;;;;;20.87;100.00;100062.16;5074273;28;20029;-75
2022/06/03 01:19:18;;;;;;;16.38;10.15;;;;;;;20.43;100.00;100052.25;5074976;28;20035;-76
2022/06/03 01:22:11;;;;;;;15.73;9.48;;;;;;;20.65;100.00;100055.03;5074381;28;20029;-76
2022/06/03 01:25:15;;;;;;;14.98;9.25;;;;;;;20.46;100.00;100057.19;5074344;28;20029;-74
2022/06/03 01:27:59;;;;;;;12.38;9.45;;;;;;;20.84;100.00;100061.53;5053401;28;20043;-76
2022/06/03 01:30:37;;;;;;;17.75;10.52;;;;;;;20.44;100.00;100032.41;5057179;28;20040;-76
2022/06/03 01:33:11;;;;;;;14.75;9.27;;;;;;;20.73;100.00;100062.25;5056607;28;20056;-75
2022/06/03 01:36:10;;;;;;;12.88;9.23;;;;;;;20.66;100.00;100073.94;5074123;28;20056;-77
2022/06/03 01:38:45;;;;;;;12.88;9.32;;;;;;;20.72;100.00;100074.34;5055755;28;20059;-75
2022/06/03 01:41:29;;;;;;;12.52;9.38;;;;;;;20.64;100.00;100080.97;5074541;28;20043;-76
2022/06/03 01:44:09;;;;;;;13.27;8.93;;;;;;;21.00;100.00;100078.44;5072556;28;20033;-78
2022/06/03 01:47:06;;;;;;;10.73;8.93;;;;;;;20.95;100.00;100043.50;5048188;28;20132;-75
2022/06/03 01:49:56;;;;;;;13.45;8.77;;;;;;;21.00;100.00;100077.63;5054029;28;20458;-75
2022/06/03 01:52:21;;;;;;;13.45;8.32;;;;;;;21.35;100.00;100088.97;5054093;28;20064;-76
2022/06/03 01:55:14;;;;;;;12.25;8.25;;;;;;;21.37;100.00;100089.69;5053512;28;20122;-76
2022/06/03 01:58:06;;;;;;;9.45;7.82;;;;;;;21.33;100.00;100085.66;5054158;28;20029;-76
2022/06/03 02:00:34;;;;;;;;;;;;;;;21.66;100.00;100090.19;5054783;28;20025;-76
2022/06/03 02:03:23;;;;;;;15.90;8.48;;;;;;;21.22;100.00;100093.34;5035650;28;20378;-77
2022/06/03 02:06:00;;;;;;;16.40;9.20;;;;;;;20.70;100.00;100083.97;5054111;28;20347;-76
2022/06/03 02:08:50;;;;;;;17.05;8.85;;;;;;;20.40;100.00;100092.97;5053886;28;20029;-77
2022/06/03 02:11:24;;;;;;;17.80;9.27;;;;;;;20.22;100.00;100091.59;5036167;28;20056;-78
2022/06/03 02:14:08;;;;;;;17.80;8.48;;;;;;;20.23;100.00;100091.47;5053132;28;20036;-78
2022/06/03 02:16:49;;;;;;;18.17;8.90;;;;;;;20.14;100.00;100080.91;5035311;28;20041;-78
2022/06/03 02:19:27;;;;;;;15.07;8.50;;;;;;;20.86;100.00;100093.28;5054284;28;20060;-78
2022/06/03 02:22:18;;;;;;;11.20;7.55;;;;;;;21.12;100.00;100067.28;5053174;28;20048;-77
2022/06/03 02:24:46;;;;;;;9.38;7.03;;;;;;;21.57;100.00;100107.19;5054279;28;20028;-78
2022/06/03 02:27:32;;;;;;;10.35;8.00;;;;;;;21.77;100.00;100114.38;5053531;28;20025;-78
2022/06/03 02:30:25;;;;;;;9.93;6.88;;;;;;;21.79;100.00;100109.91;5053904;28;20439;-77
2022/06/03 02:33:05;;;;;;;13.88;7.50;;;;;;;21.86;100.00;100115.50;5053999;28;20037;-80
2022/06/03 02:36:07;;;;;;;9.30;6.57;;;;;;;21.99;100.00;100119.69;5053384;28;20033;-78
2022/06/03 02:38:54;;;;;;;7.68;6.60;;;;;;;21.94;100.00;100120.97;5035109;28;20127;-74
2022/06/03 02:41:47;;;;;;;13.77;7.38;;;;;;;21.62;100.00;100125.81;5035592;28;20119;-77
2022/06/03 02:44:16;;;;;;;11.98;8.15;;;;;;;20.60;100.00;100126.84;5049294;28;20062;-76
2022/06/03 02:46:58;;;;;;;15.55;9.00;;;;;;;20.78;100.00;100118.81;5016541;28;20033;-74
2022/06/03 02:49:59;;;;;;;12.45;8.23;;;;;;;20.67;100.00;100119.53;5046552;28;20036;-73
2022/06/03 02:52:32;;;;;;;15.32;8.45;;;;;;;20.42;100.00;100133.25;4983011;28;20558;-76
2022/06/03 02:55:09;;;;;;;17.63;9.70;;;;;;;20.02;100.00;100134.16;5033008;28;20286;-86
2022/06/03 02:57:53;;;;;;;18.48;10.05;;;;;;;20.09;100.00;100101.00;5015073;28;20037;-77
2022/06/03 03:00:51;;;;;;;16.48;9.40;;;;;;;19.88;100.00;100137.63;5030020;28;20041;-87
2022/06/03 03:03:52;;;;;;;15.65;10.48;;;;;;;19.83;100.00;100142.25;5013612;28;20631;-81
2022/06/03 03:06:33;;;;;;;20.83;10.17;;;;;;;19.91;100.00;100135.78;5032463;28;20633;-78
2022/06/03 03:09:19;;;;;;;16.27;10.35;;;;;;;20.09;100.00;100135.41;5015205;28;20525;-83
2022/06/03 03:12:23;;;;;;;19.77;10.25;;;;;;;20.00;100.00;100146.34;5032458;28;20033;-86
2022/06/03 03:15:04;;;;;;;16.55;10.43;;;;;;;19.97;100.00;100145.69;4994866;28;20136;-85
2022/06/03 03:17:35;;;;;;;20.70;11.15;;;;;;;19.82;100.00;100096.72;5015055;28;20468;-85
2022/06/03 03:20:35;;;;;;;15.13;10.15;;;;;;;20.30;100.00;100152.13;5031474;28;20040;-86
2022/06/03 03:23:19;;;;;;;18.88;10.55;;;;;;;20.68;100.00;100162.50;5010145;28;20037;-74
2022/06/03 03:26:15;;;;;;;19.33;10.60;;;;;;;20.68;100.00;100178.03;5052794;28;20506;-77
2022/06/03 03:29:14;;;;;;;19.55;10.15;;;;;;;20.67;100.00;100174.63;5053470;28;20025;-75
2022/06/03 03:31:43;;;;;;;18.77;9.75;;;;;;;21.05;100.00;100179.84;5033582;28;20029;-77
2022/06/03 03:34:42;;;;;;;14.27;9.10;;;;;;;21.40;100.00;100174.84;5051238;28;20095;-78
2022/06/03 03:37:19;;;;;;;15.18;9.43;;;;;;;21.62;100.00;100172.41;5034402;28;20041;-76
2022/06/03 03:40:26;;;;;;;15.18;9.52;;;;;;;21.99;100.00;100184.44;5052545;28;20025;-77
2022/06/03 03:43:31;;;;;;;12.27;9.57;;;;;;;21.74;100.00;100188.84;5014197;28;20179;-77
2022/06/03 03:46:34;;;;;;;13.07;8.27;;;;;;;22.01;100.00;100192.91;5034462;28;20128;-77
2022/06/03 03:49:27;;;;;;;16.40;9.02;;;;;;;22.30;100.00;100189.03;5034969;28;20061;-76
2022/06/03 03:52:01;;;;;;;12.32;8.45;;;;;;;22.34;100.00;100203.41;5034652;28;20127;-78
2022/06/03 03:55:04;;;;;;;16.73;9.32;;;;;;;21.56;100.00;100191.78;5034279;28;20033;-76
2022/06/03 03:57:43;;;;;;;15.80;9.70;;;;;;;21.40;100.00;100195.53;5034323;28;20048;-76
2022/06/03 04:00:36;;;;;;;37.05;10.40;;;;;;;21.51;100.00;100199.03;5034922;28;20040;-76
2022/06/03 04:03:22;;;;;;;17.27;10.32;;;;;;;21.62;100.00;100197.47;4702821;28;10000079;-75
2022/06/03 04:06:04;;;;;;;12.48;9.25;;;;;;;21.55;100.00;100153.09;5034253;28;20071;-75
2022/06/03 04:08:54;;;;;;;14.50;9.75;;;;;;;22.49;100.00;100195.47;5034340;28;20036;-74
2022/06/03 04:11:57;;;;;;;18.15;9.05;;;;;;;22.51;100.00;100199.59;5055313;28;20097;-73
2022/06/03 04:14:41;;;;;;;15.43;9.00;;;;;;;22.68;100.00;100162.09;5037228;28;20506;-75
2022/06/03 04:17:24;;;;;;;10.90;8.25;;;;;;;23.16;100.00;100202.47;5054494;28;20123;-73
2022/06/03 04:20:03;;;;;;;12.23;8.30;;;;;;;23.28;100.00;100199.78;5033904;28;20103;-73
2022/06/03 04:22:47;;;;;;;12.02;8.40;;;;;;;23.44;100.00;100207.25;5034502;28;20033;-72
2022/06/03 04:25:58;;;;;;;14.63;7.90;;;;;;;23.79;100.00;100209.69;5033601;28;20029;-73
2022/06/03 04:29:06;;;;;;;15.37;9.50;;;;;;;22.73;100.00;100202.31;5032398;28;20083;-75
2022/06/03 04:32:04;;;;;;;17.55;9.40;;;;;;;22.98;100.00;100202.09;5034700;28;20029;-75
2022/06/03 04:34:57;;;;;;;16.23;9.65;;;;;;;23.23;100.00;100203.69;4999917;28;20049;-74
2022/06/03 04:38:05;;;;;;;22.75;13.15;;;;;;;23.49;100.00;100204.28;5034442;28;20044;-73
2022/06/03 04:41:12;;;;;;;30.02;16.83;;;;;;;23.51;100.00;100195.41;5034524;28;20053;-73
2022/06/03 04:44:02;;;;;;;27.88;17.15;;;;;;;23.76;100.00;100179.59;5015934;28;20045;-76
2022/06/03 04:46:28;;;;;;;29.08;13.95;;;;;;;24.01;100.00;100210.44;5035575;28;20036;-77
2022/06/03 04:49:23;;;;;;;24.63;15.07;;;;;;;24.32;100.00;100208.03;5035387;28;20064;-78
2022/06/03 04:52:11;;;;;;;15.73;9.13;;;;;;;24.99;100.00;100216.31;5016747;28;20044;-77
2022/06/03 04:55:04;;;;;;;13.35;7.47;;;;;;;25.41;100.00;100226.59;5035143;28;20507;-77
2022/06/03 04:58:00;;;;;;;9.75;6.90;;;;;;;25.67;100.00;100216.53;5034649;28;20488;-77
2022/06/03 05:00:40;;;;;;;10.27;6.70;;;;;;;25.87;100.00;100218.19;5035094;28;20045;-76
2022/06/03 05:03:32;;;;;;;10.30;7.00;;;;;;;26.09;100.00;100217.16;5034536;28;20052;-77
2022/06/03 05:06:17;;;;;;;10.27;6.65;;;;;;;26.05;100.00;100223.59;5021552;28;20099;-78
2022/06/03 05:09:03;;;;;;;9.77;6.80;;;;;;;26.37;100.00;100216.38;5034335;28;20143;-76
2022/06/03 05:12:09;;;;;;;17.77;7.25;;;;;;;26.41;100.00;100215.13;5034778;28;20104;-79
2022/06/03 05:15:25;;;;;;;8.45;7.53;;;;;;;26.40;100.00;100216.09;5034677;28;20472;-79
2022/06/03 05:18:08;;;;;;;17.20;7.75;;;;;;;26.64;100.00;100219.13;5034478;28;20112;-78
2022/06/03 05:20:53;;;;;;;11.15;7.20;;;;;;;26.43;100.00;100184.50;5016803;28;20059;-78
2022/06/03 05:23:58;;;;;;;10.68;6.78;;;;;;;26.86;100.00;100225.84;5034760;28;20028;-77
2022/06/03 05:26:26;;;;;;;9.70;6.53;;;;;;;26.91;100.00;100223.63;5017785;28;20095;-76
2022/06/03 05:29:30;;;;;;;11.48;6.63;;;;;;;27.06;100.00;100223.03;5017057;28;20053;-78
2022/06/03 05:32:50;;;;;;;7.68;6.57;;;;;;;27.28;100.00;100230.53;5030390;28;20065;-78
2022/06/03 05:35:36;;;;;;;10.38;6.60;;;;;;;27.06;100.00;100225.63;4916304;29;20103;-78
2022/06/03 05:38:27;;;;;;;10.98;7.10;;;;;;;27.16;100.00;100233.44;5034879;28;20029;-78
2022/06/03 05:40:56;;;;;;;;;;;;;;;27.48;100.00;100226.06;5018703;28;20069;-77
2022/06/03 05:43:39;;;;;;;8.73;6.45;;;;;;;27.41;100.00;100235.47;5034430;28;19913;-77
2022/06/03 05:46:36;;;;;;;8.98;6.30;;;;;;;27.67;100.00;100235.63;5016378;28;20037;-78
2022/06/03 05:49:12;;;;;;;10.02;6.03;;;;;;;27.59;100.00;100198.94;5033895;28;20025;-78
2022/06/03 05:52:10;;;;;;;8.98;6.00;;;;;;;27.90;100.00;100232.44;5034178;28;20030;-78
2022/06/03 05:55:23;;;;;;;7.57;6.00;;;;;;;27.90;100.00;100226.41;5034049;28;20029;-79
2022/06/03 05:57:50;;;;;;;7.35;5.60;;;;;;;28.17;100.00;100232.44;4981583;28;20076;-78
2022/06/03 06:00:43;;;;;;;9.23;5.70;;;;;;;28.26;100.00;100225.50;5033282;28;20033;-78
2022/06/03 06:03:27;;;;;;;8.55;5.78;;;;;;;28.23;100.00;100231.00;5015741;28;20084;-77
2022/06/03 06:06:07;;;;;;;8.55;5.60;;;;;;;28.73;100.00;100236.53;5016224;28;20550;-78
2022/06/03 06:08:51;;;;;;;8.33;6.07;;;;;;;28.98;100.00;100241.78;5016072;28;20029;-77
2022/06/03 06:11:20;;;;;;;10.77;6.18;;;;;;;29.16;100.00;100235.72;5015450;28;20029;-77
2022/06/03 06:14:03;;;;;;;10.70;5.72;;;;;;;29.13;100.00;100231.56;5033744;28;20121;-76
2022/06/03 06:16:38;;;;;;;7.18;5.80;;;;;;;29.26;100.00;100234.63;5016108;28;20095;-76
2022/06/03 06:19:21;;;;;;;7.93;5.40;;;;;;;28.84;99.62;100229.25;5033649;28;20033;-77
2022/06/03 06:21:59;;;;;;;8.65;5.60;;;;;;;29.18;100.00;100237.19;5016021;28;20029;-76
2022/06/03 06:24:50;;;;;;;10.70;5.43;;;;;;;29.42;100.00;100234.69;5033528;28;20086;-75
2022/06/03 06:27:57;;;;;;;13.68;5.57;;;;;;;29.88;97.02;100236.88;5032174;28;20041;-75
2022/06/03 06:30:28;;;;;;;9.38;5.60;;;;;;;29.31;100.00;100235.00;5032645;28;20060;-79
2022/06/03 06:33:12;;;;;;;12.25;5.45;;;;;;;29.82;99.43;100237.50;5032371;28;20033;-75
2022/06/03 06:36:06;;;;;;;8.90;5.38;;;;;;;29.38;93.17;100207.16;5017291;28;20037;-77
2022/06/03 06:38:38;;;;;;;9.60;5.22;;;;;;;29.80;90.21;100244.72;5052512;28;20069;-76
2022/06/03 06:41:28;;;;;;;7.45;5.07;;;;;;;29.94;92.81;100245.91;5034118;28;20123;-75
2022/06/03 06:44:09;;;;;;;7.45;5.07;;;;;;;29.54;91.15;100220.34;5053283;28;20051;-76
2022/06/03 06:47:09;;;;;;;6.75;5.28;;;;;;;30.04;92.07;100245.75;5052875;28;20056;-77
2022/06/03 06:50:16;;;;;;;7.10;4.77;;;;;;;30.08;89.17;100244.44;5052933;28;20036;-78
2022/06/03 06:53:03;;;;;;;9.48;5.82;;;;;;;30.27;89.62;100247.59;4972103;28;20060;-75
2022/06/03 06:55:31;;;;;;;10.40;5.38;;;;;;;30.30;87.59;100241.25;5035245;28;20122;-76
2022/06/03 06:58:03;;;;;;;11.25;5.50;;;;;;;30.28;85.78;100248.44;5052614;28;20037;-75
2022/06/03 07:00:36;;;;;;;6.45;5.20;;;;;;;30.50;81.92;100217.16;5034689;28;20033;-75
2022/06/03 07:03:20;;;;;;;8.95;5.03;;;;;;;30.35;82.82;100203.00;5052378;28;20049;-74
2022/06/03 07:05:58;;;;;;;9.13;5.50;;;;;;;30.59;84.54;100258.16;5035082;28;20099;-75
2022/06/03 07:08:28;;;;;;;6.35;4.97;;;;;;;30.70;82.13;100241.25;5052407;28;20032;-75
2022/06/03 07:10:56;;;;;;;11.02;4.97;;;;;;;30.21;78.42;100237.75;5034842;28;20060;-75
2022/06/03 07:13:47;;;;;;;9.32;4.68;;;;;;;30.68;76.94;100236.16;5051865;28;20028;-74
2022/06/03 07:19:49;;;;;;;8.95;4.82;;;;;;;29.92;76.94;100183.13;5052127;28;20048;-78
2022/06/03 07:22:52;;;;;;;7.23;4.40;;;;;;;30.92;77.19;100247.66;5010508;28;20037;-77
2022/06/03 07:25:31;;;;;;;7.05;4.80;;;;;;;30.90;75.75;100241.75;5052274;28;20307;-77
2022/06/03 07:28:13;;;;;;;9.50;4.80;;;;;;;30.51;75.65;100225.81;5052423;28;20262;-76
2022/06/03 07:30:46;;;;;;;6.50;4.82;;;;;;;30.99;74.53;100230.25;5052341;28;20029;-77
2022/06/03 07:33:17;;;;;;;10.05;4.90;;;;;;;31.53;73.96;100238.16;5052351;28;20041;-76
2022/06/03 07:35:47;;;;;;;6.85;4.57;;;;;;;32.14;70.35;100234.72;5034321;28;20037;-75
2022/06/03 07:38:31;;;;;;;8.70;4.63;;;;;;;31.72;73.09;100236.09;5034652;28;20025;-75
2022/06/03 07:41:16;;;;;;;7.15;4.60;;;;;;;31.82;70.25;100234.88;5034127;28;20513;-73
2022/06/03 07:43:53;;;;;;;8.55;5.07;;;;;;;31.34;70.97;100206.13;5034228;28;20028;-77
2022/06/03 07:46:25;;;;;;;7.90;4.75;;;;;;;31.69;69.74;100232.00;5038845;28;20479;-77
2022/06/03 07:48:51;;;;;;;6.85;5.00;;;;;;;32.00;69.30;100232.84;5056301;28;20044;-75
2022/06/03 07:51:33;;;;;;;5.00;4.40;;;;;;;31.83;66.59;100238.34;5038253;28;20460;-78
2022/06/03 07:54:07;;;;;;;7.30;4.57;;;;;;;31.79;67.95;100232.63;5038618;28;20128;-75
2022/06/03 07:56:35;;;;;;;6.25;4.57;;;;;;;32.15;67.61;100231.09;5055509;28;20072;-77
2022/06/03 07:59:06;;;;;;;6.53;4.57;;;;;;;31.52;68.19;100198.88;5055516;28;20082;-76
2022/06/03 08:01:37;;;;;;;6.87;4.80;;;;;;;31.98;66.85;100220.84;5055652;28;20036;-77
2022/06/03 08:04:06;;;;;;;9.07;5.18;;;;;;;31.95;67.14;100219.38;5037889;28;20430;-76
2022/06/03 08:12:12;;;;;;;18.15;4.97;;;;;;;32.02;64.38;100216.88;5055493;28;20040;-76
2022/06/03 08:14:37;;;;;;;7.85;4.20;;;;;;;32.81;62.50;100219.88;5054938;28;20048;-76
2022/06/03 08:17:06;;;;;;;5.80;4.38;;;;;;;31.67;64.17;100197.16;5055108;28;20016;-77
2022/06/03 08:19:33;;;;;;;9.80;4.53;;;;;;;32.22;62.36;100212.78;5033987;28;20074;-76
2022/06/03 08:22:02;;;;;;;8.48;4.43;;;;;;;31.66;64.33;100215.72;5035232;28;20041;-76
2022/06/03 08:24:34;;;;;;;7.32;4.60;;;;;;;31.52;63.40;100183.09;5034351;28;20039;-74
2022/06/03 08:27:11;;;;;;;7.43;4.10;;;;;;;31.84;63.39;100216.28;5035378;28;20043;-77
2022/06/03 08:29:48;;;;;;;8.48;4.70;;;;;;;32.51;63.08;100227.91;5017735;28;20033;-76
2022/06/03 08:32:22;;;;;;;7.72;4.50;;;;;;;31.83;62.63;100215.50;5035135;28;20052;-77
2022/06/03 08:34:53;;;;;;;6.90;4.20;;;;;;;32.20;62.17;100202.44;5034883;28;20026;-77
2022/06/03 08:37:33;;;;;;;5.57;3.70;;;;;;;32.24;61.05;100195.81;5034186;28;20041;-76
2022/06/03 08:40:02;;;;;;;7.22;4.07;;;;;;;32.91;60.45;100225.69;5034524;28;20211;-77
2022/06/03 08:42:49;;;;;;;8.77;4.57;;;;;;;32.31;61.65;100202.00;5035214;28;20049;-75
2022/06/03 08:45:33;;;;;;;8.65;4.07;;;;;;;33.04;59.03;100225.13;5017179;28;20079;-75
2022/06/03 08:48:04;;;;;;;6.53;4.43;;;;;;;32.65;59.07;100196.31;5017061;28;20084;-75
2022/06/03 08:50:36;;;;;;;7.32;4.20;;;;;;;32.91;58.54;100240.69;5034922;28;20021;-75
2022/06/03 08:53:41;;;;;;;7.47;4.35;;;;;;;33.04;58.98;100225.13;5017307;28;20033;-77
2022/06/03 08:56:10;;;;;;;5.68;4.00;;;;;;;33.11;60.07;100223.38;5015305;28;20037;-75
2022/06/03 08:59:07;;;;;;;7.05;4.13;;;;;;;32.64;57.52;100239.47;5034584;28;20108;-76
2022/06/03 09:01:48;;;;;;;7.38;4.05;;;;;;;32.55;58.02;100226.53;5028214;28;20041;-74
2022/06/03 09:04:24;;;;;;;7.30;4.28;;;;;;;33.04;57.77;100239.09;5034527;28;20041;-75
2022/06/03 09:07:01;;;;;;;6.30;3.92;;;;;;;33.11;55.39;100241.84;5034202;28;20061;-77
2022/06/03 09:09:49;;;;;;;10.80;4.00;;;;;;;32.95;56.31;100241.97;5034273;28;20065;-75
2022/06/03 09:12:51;;;;;;;5.70;3.60;;;;;;;33.23;55.72;100219.28;5032996;28;20033;-74
2022/06/03 09:15:26;;;;;;;6.93;4.25;;;;;;;33.46;56.21;100221.84;5016450;28;20113;-74
2022/06/03 09:17:55;;;;;;;8.07;3.83;;;;;;;34.02;55.84;100247.50;5016074;28;20060;-74
2022/06/03 09:20:36;;;;;;;4.95;4.10;;;;;;;33.55;56.14;100261.16;5033887;28;20060;-75
2022/06/03 09:23:08;;;;;;;5.15;4.20;;;;;;;33.27;55.47;100260.13;5034008;28;20033;-75
2022/06/03 09:25:37;;;;;;;7.32;4.25;;;;;;;33.56;55.45;100262.75;5016485;28;20132;-75
2022/06/03 09:28:06;;;;;;;8.30;4.30;;;;;;;33.11;55.85;100231.28;5034034;28;20067;-76
2022/06/03 09:30:38;;;;;;;6.40;4.38;;;;;;;31.15;61.92;100233.66;5033021;28;20040;-76
2022/06/03 09:33:06;;;;;;;8.43;4.43;;;;;;;31.34;62.24;100253.47;5015607;28;20030;-74
2022/06/03 09:35:34;;;;;;;5.35;4.22;;;;;;;31.53;62.45;100226.81;5033599;28;20156;-75
2022/06/03 09:38:02;;;;;;;7.07;4.20;;;;;;;31.48;64.17;100255.41;5033672;28;20029;-74
2022/06/03 09:40:34;;;;;;;5.35;4.40;;;;;;;32.08;62.67;100261.75;5032205;28;20108;-74
2022/06/03 09:43:13;;;;;;;8.68;4.70;;;;;;;32.06;62.35;100265.53;5033482;28;20056;-74
2022/06/03 09:45:40;;;;;;;9.18;4.63;;;;;;;31.35;64.33;100258.56;5033470;28;20037;-75
2022/06/03 09:48:06;;;;;;;7.45;4.50;;;;;;;31.01;66.23;100242.22;5033584;28;20029;-76
2022/06/03 09:50:32;;;;;;;8.02;4.15;;;;;;;31.11;66.09;100270.94;5031912;28;20040;-74
2022/06/03 09:53:01;;;;;;;8.27;4.32;;;;;;;31.15;66.43;100274.88;5033134;28;20108;-74
2022/06/03 09:55:38;;;;;;;8.93;4.75;;;;;;;31.05;67.09;100274.25;5033518;28;20036;-74
2022/06/03 09:58:08;;;;;;;10.43;4.72;;;;;;;32.32;65.51;100266.84;5033222;28;20554;-74
2022/06/03 10:00:47;;;;;;;9.23;4.45;;;;;;;31.48;66.28;100276.47;5015393;28;20029;-74
2022/06/03 10:03:14;;;;;;;10.48;4.80;;;;;;;31.85;64.56;100268.75;5032960;28;20451;-74
2022/06/03 10:05:42;;;;;;;8.70;4.20;;;;;;;32.81;63.05;100271.75;5015563;28;20033;-74
2022/06/03 10:08:10;;;;;;;9.75;4.82;;;;;;;33.13;62.57;100282.84;5032486;28;20504;-75
2022/06/03 10:13:22;;;;;;;9.02;4.32;;;;;;;32.11;63.71;100250.84;5032977;28;20486;-74
2022/06/03 10:15:56;;;;;;;9.40;4.35;;;;;;;32.54;62.61;100253.88;5015247;28;20120;-74
2022/06/03 10:18:39;;;;;;;7.43;4.45;;;;;;;33.10;59.78;100275.28;5015437;28;20080;-75
2022/06/03 10:21:05;;;;;;;8.02;4.38;;;;;;;33.25;60.01;100277.94;5033036;28;20474;-75
2022/06/03 10:23:35;;;;;;;6.57;4.18;;;;;;;33.26;59.75;100274.28;5015148;28;20033;-75
2022/06/03 10:26:01;;;;;;;11.18;4.72;;;;;;;33.86;59.00;100268.81;5032550;28;20030;-75
2022/06/03 10:28:39;;;;;;;8.13;4.55;;;;;;;33.34;58.21;100268.13;5014912;28;20029;-75
2022/06/03 10:31:12;;;;;;;7.68;4.45;;;;;;;33.24;58.57;100247.28;5032667;28;20036;-75
2022/06/03 10:33:38;;;;;;;8.30;4.45;;;;;;;33.17;58.82;100241.09;5032694;28;20029;-75
2022/06/03 10:36:05;;;;;;;8.52;4.65;;;;;;;33.52;58.53;100253.56;5014805;28;20057;-75
2022/06/03 10:38:36;;;;;;;8.25;4.78;;;;;;;33.83;58.27;100221.69;5032311;28;20034;-74
2022/06/03 10:41:11;;;;;;;9.43;4.50;;;;;;;34.20;57.00;100241.78;5015097;28;20158;-75
2022/06/03 10:43:37;;;;;;;6.07;4.20;;;;;;;33.43;57.47;100203.72;5014797;28;20038;-74
2022/06/03 10:46:10;;;;;;;6.78;4.72;;;;;;;33.53;57.79;100252.59;5032270;28;20471;-75
2022/06/03 10:48:36;;;;;;;8.00;4.57;;;;;;;32.26;61.16;100235.13;5032387;28;20037;-74
2022/06/03 11:01:06;;;;;;;6.82;4.78;;;;;;;31.96;61.73;100221.03;5014411;28;20029;-75
2022/06/03 11:02:35;;;;;;;7.22;4.30;;;;;;;34.04;58.06;100242.84;5032148;28;20061;-75
2022/06/03 11:05:32;;;;;;;9.20;4.85;;;;;;;33.76;56.47;100277.03;5014558;28;20129;-74
2022/06/03 11:08:06;;;;;;;13.25;5.07;;;;;;;32.69;61.26;100286.34;5004248;28;20096;-75
2022/06/03 11:10:41;;;;;;;13.40;4.95;;;;;;;31.00;75.76;100279.97;5032195;28;20087;-74
2022/06/03 11:13:09;;;;;;;10.50;5.68;;;;;;;29.61;96.69;100270.34;5032045;28;20033;-74
2022/06/03 11:15:38;;;;;;;11.52;5.63;;;;;;;28.95;100.00;100281.41;5031774;28;20040;-75
2022/06/03 11:18:24;;;;;;;8.60;5.22;;;;;;;29.08;100.00;100267.88;5015612;28;20033;-74
2022/06/03 11:20:52;;;;;;;15.43;6.18;;;;;;;28.73;98.62;100207.75;5021208;28;20083;-75
2022/06/03 11:23:18;;;;;;;14.70;5.93;;;;;;;28.94;100.00;100274.50;5020808;28;20029;-75
2022/06/03 11:25:49;;;;;;;13.45;6.00;;;;;;;29.11;100.00;100276.28;5038979;28;20033;-74
2022/06/03 11:28:29;;;;;;;12.27;5.53;;;;;;;29.34;100.00;100276.59;5038962;28;20056;-75
2022/06/03 11:31:04;;;;;;;10.13;5.68;;;;;;;28.83;99.62;100253.81;5021288;28;20040;-75
2022/06/03 11:33:41;;;;;;;9.15;5.20;;;;;;;28.58;100.00;100232.84;5038542;28;20036;-75
2022/06/03 11:36:13;;;;;;;9.15;5.18;;;;;;;28.99;99.98;100280.13;5038583;28;20029;-75
2022/06/03 11:38:46;;;;;;;15.95;5.80;;;;;;;28.82;100.00;100267.06;5038766;28;20061;-74
2022/06/03 11:41:24;;;;;;;13.80;5.53;;;;;;;28.77;100.00;100259.66;5038754;28;20034;-75
2022/06/03 11:43:56;;;;;;;10.13;4.95;;;;;;;29.00;100.00;100258.16;5038729;28;20119;-75
2022/06/03 11:46:25;;;;;;;;;;;;;;;30.00;97.38;100250.50;5021335;28;20038;-74
2022/06/03 11:48:52;;;;;;;11.73;6.50;;;;;;;30.08;90.67;100226.91;5020742;28;19920;-75
2022/06/03 11:51:18;;;;;;;13.13;5.55;;;;;;;30.71;88.25;100248.97;5038532;28;20065;-75
2022/06/03 11:53:47;;;;;;;10.60;4.75;;;;;;;30.39;85.24;100246.34;5020951;28;20044;-74
2022/06/03 11:56:20;;;;;;;9.95;5.10;;;;;;;30.94;81.60;100246.50;5039082;28;20034;-75
2022/06/03 11:59:04;;;;;;;7.78;5.00;;;;;;;31.32;79.46;100251.00;5038787;28;20037;-76
2022/06/03 12:01:50;;;;;;;9.95;5.47;;;;;;;31.61;80.27;100250.47;5038704;28;20041;-75
2022/06/03 12:04:39;;;;;;;9.55;5.57;;;;;;;31.35;87.55;100241.97;5038408;28;20525;-75
2022/06/03 12:07:33;;;;;;;8.68;5.22;;;;;;;32.65;76.98;100250.81;5027000;28;20049;-75
2022/06/03 12:10:06;;;;;;;33.90;6.63;;;;;;;32.85;74.62;100251.94;5038530;28;20160;-75
2022/06/03 12:15:44;;;;;;;10.07;5.10;;;;;;;32.83;68.96;100246.88;5037828;28;20036;-75
2022/06/03 12:18:10;;;;;;;10.77;4.90;;;;;;;31.86;73.50;100243.25;5033927;28;20042;-74
2022/06/03 12:20:35;;;;;;;13.43;5.30;;;;;;;32.20;78.63;100236.66;5037828;28;20034;-75
2022/06/03 12:23:13;;;;;;;10.98;5.22;;;;;;;33.43;71.79;100240.66;5038073;28;20256;-75
2022/06/03 12:25:43;;;;;;;9.50;5.07;;;;;;;32.84;67.15;100239.78;5038232;28;20063;-75
2022/06/03 12:28:24;;;;;;;13.05;4.60;;;;;;;32.48;68.24;100233.50;5020833;28;20116;-75
2022/06/03 12:31:10;;;;;;;7.40;4.32;;;;;;;33.11;68.76;100215.47;5034668;28;20030;-75
2022/06/03 12:33:54;;;;;;;12.48;5.25;;;;;;;32.95;69.83;100223.50;5034934;28;20029;-75
2022/06/03 12:36:45;;;;;;;11.20;4.80;;;;;;;32.08;66.58;100224.91;5034658;28;20030;-75
2022/06/03 12:39:29;;;;;;;11.07;4.50;;;;;;;32.74;67.89;100218.97;5034861;28;20480;-74
2022/06/03 12:42:32;;;;;;;10.40;5.10;;;;;;;33.40;72.99;100190.91;5034871;28;20025;-75
2022/06/03 12:45:03;;;;;;;7.80;4.93;;;;;;;32.65;72.83;100219.19;5034906;28;20072;-76
2022/06/03 12:47:31;;;;;;;12.30;5.28;;;;;;;32.94;74.03;100217.41;5035133;28;20531;-75